Time;durP1;ratioP1;P1;durP2;ratioP2;P2;SDS_P1;SDS_P2;PMS_P1;PMS_P2;Temp;Humidity;BMP_temperature;BMP_pressure;BME280_temperature;BME280_humidity;BME280_pressure;Samples;Min_cycle;Max_cycle;Signal;HPM_P1;HPM_P2
2022/11/13 00:00:19;;;;;;;7.30;4.32;;;;;;;19.20;64.49;99466.22;2086869;28;20070;-46
2022/11/13 00:01:22;;;;;;;;;;;;;;;19.12;64.40;99460.97;2083114;28;20052;-47
2022/11/13 00:02:22;;;;;;;9.18;3.97;;;;;;;19.16;64.45;99456.84;2083195;28;19928;-46
2022/11/13 00:03:24;;;;;;;;;;;;;;;19.08;64.57;99459.63;2088160;28;20620;-47
2022/11/13 00:04:25;;;;;;;;;;;;;;;19.05;64.70;99454.63;2094222;28;19924;-47
2022/11/13 00:05:26;;;;;;;8.37;4.43;;;;;;;19.13;64.39;99457.22;2090098;28;19926;-47
2022/11/13 00:06:27;;;;;;;7.15;4.00;;;;;;;19.17;64.53;99454.00;2080816;28;20690;-46
2022/11/13 00:07:29;;;;;;;;;;;;;;;19.11;64.51;99457.44;2087250;28;20054;-46
2022/11/13 00:08:30;;;;;;;8.48;4.18;;;;;;;19.14;64.26;99453.53;2087271;28;19928;-47
2022/11/13 00:09:31;;;;;;;;;;;;;;;19.05;64.38;99449.25;2086726;28;20056;-48
2022/11/13 00:10:32;;;;;;;8.20;4.50;;;;;;;19.13;64.49;99449.16;2085695;28;19928;-47
2022/11/13 00:11:34;;;;;;;;;;;;;;;19.06;64.51;99451.78;2082902;28;20056;-49
2022/11/13 00:12:36;;;;;;;;;;;;;;;18.98;64.94;99446.50;2087243;28;19924;-46
2022/11/13 00:13:38;;;;;;;7.28;3.97;;;;;;;19.05;64.62;99443.88;2086897;28;20275;-46
2022/11/13 00:14:38;;;;;;;10.85;4.28;;;;;;;19.14;64.41;99448.16;2083066;28;20048;-48
2022/11/13 00:15:40;;;;;;;;;;;;;;;19.06;64.66;99445.56;2087513;28;21401;-46
2022/11/13 00:16:41;;;;;;;7.70;3.35;;;;;;;19.11;64.68;99446.69;2093552;28;19935;-45
2022/11/13 00:17:42;;;;;;;;;;;;;;;19.02;64.76;99450.47;2092586;28;20044;-46
2022/11/13 00:18:44;;;;;;;8.65;4.18;;;;;;;19.07;64.56;99442.69;2093302;28;19920;-47
2022/11/13 00:19:45;;;;;;;8.65;3.92;;;;;;;19.13;64.25;99447.31;2096001;28;20048;-46
2022/11/13 00:20:46;;;;;;;9.40;4.30;;;;;;;19.17;64.00;99447.78;2094086;28;20036;-46
2022/11/13 00:21:48;;;;;;;;;;;;;;;19.06;64.51;99440.19;2082216;28;20048;-47
2022/11/13 00:22:48;;;;;;;;;;;;;;;18.98;64.72;99450.00;2084773;28;19927;-46
2022/11/13 00:23:51;;;;;;;8.97;3.83;;;;;;;19.05;64.49;99452.78;2087357;28;20546;-46
2022/11/13 00:24:52;;;;;;;8.23;4.40;;;;;;;19.10;64.33;99446.84;2086499;28;20305;-46
2022/11/13 00:25:53;;;;;;;;;;;;;;;19.00;64.74;99444.47;2082959;28;20069;-46
2022/11/13 00:26:54;;;;;;;9.63;3.78;;;;;;;19.07;64.62;99449.91;2085883;28;19925;-47
2022/11/13 00:27:57;;;;;;;;;;;;;;;18.98;64.53;99443.81;2088133;28;20044;-46
2022/11/13 00:29:00;;;;;;;9.13;4.57;;;;;;;19.05;64.51;99447.41;2086330;28;19927;-47
2022/11/13 00:30:02;;;;;;;10.23;5.30;;;;;;;19.10;64.15;99439.63;2085780;28;20056;-48
2022/11/13 00:31:04;;;;;;;10.30;4.05;;;;;;;19.12;64.41;99436.75;2085317;28;20070;-47
2022/11/13 00:32:06;;;;;;;12.13;5.22;;;;;;;19.16;64.22;99438.03;2088393;28;20087;-47
2022/11/13 00:33:07;;;;;;;10.15;4.88;;;;;;;19.16;64.10;99436.16;2088237;28;20048;-47
2022/11/13 00:34:10;;;;;;;;;;;;;;;19.04;64.53;99426.09;2085778;28;20052;-47
2022/11/13 00:35:11;;;;;;;7.60;3.72;;;;;;;19.07;64.59;99423.84;2083417;28;22079;-48
2022/11/13 00:36:14;;;;;;;;;;;;;;;18.98;64.54;99423.13;2086404;28;20067;-47
2022/11/13 00:37:16;;;;;;;7.10;3.70;;;;;;;19.04;64.60;99423.41;2087194;28;19928;-46
2022/11/13 00:38:17;;;;;;;7.50;3.90;;;;;;;19.05;64.40;99420.50;2084506;28;21786;-48
2022/11/13 00:39:19;;;;;;;;;;;;;;;18.98;64.34;99427.69;2084339;28;20054;-45
2022/11/13 00:40:19;;;;;;;;;;;;;;;18.89;64.87;99424.25;2084828;28;19928;-46
2022/11/13 00:41:21;;;;;;;6.57;4.33;;;;;;;18.94;64.54;99421.84;2085680;28;19920;-47
2022/11/13 00:42:22;;;;;;;7.45;3.80;;;;;;;19.00;64.49;99419.41;2086379;28;20274;-47
2022/11/13 00:43:25;;;;;;;;;;;;;;;18.93;64.46;99416.66;2085356;28;20648;-46
2022/11/13 00:44:26;;;;;;;6.78;4.03;;;;;;;18.97;64.32;99418.78;2088605;28;19921;-47
2022/11/13 00:45:27;;;;;;;;;;;;;;;18.92;64.54;99423.88;2088057;28;20654;-49
2022/11/13 00:46:28;;;;;;;7.85;3.95;;;;;;;18.97;64.41;99426.00;2086266;28;19932;-46
2022/11/13 00:47:30;;;;;;;;;;;;;;;18.87;64.76;99420.91;2085950;28;21315;-48
2022/11/13 00:48:31;;;;;;;9.77;4.93;;;;;;;18.97;64.59;99432.22;2086187;28;19924;-47
2022/11/13 00:49:33;;;;;;;;;;;;;;;18.91;64.48;99432.94;2087901;28;21471;-46
2022/11/13 00:50:33;;;;;;;;;;;;;;;18.85;64.78;99438.25;2091568;28;19924;-46
2022/11/13 00:51:36;;;;;;;8.30;4.63;;;;;;;18.90;64.73;99436.66;2092278;28;19924;-47
2022/11/13 00:52:36;;;;;;;8.85;4.18;;;;;;;18.97;64.31;99442.97;2090469;28;20044;-47
2022/11/13 00:53:38;;;;;;;;;;;;;;;18.90;64.59;99436.66;2086917;28;20046;-46
2022/11/13 00:54:39;;;;;;;;;;;;;;;18.81;64.56;99440.47;2088498;28;19920;-45
2022/11/13 00:55:42;;;;;;;6.10;3.43;;;;;;;18.88;64.84;99441.38;2084256;28;19939;-47
2022/11/13 00:56:44;;;;;;;7.28;4.80;;;;;;;18.93;64.74;99441.66;2088229;28;20303;-47
2022/11/13 00:57:45;;;;;;;9.18;4.38;;;;;;;18.97;64.18;99444.81;2088082;28;20604;-47
2022/11/13 00:58:48;;;;;;;;;;;;;;;18.87;64.81;99438.91;2089335;28;20049;-46
2022/11/13 00:59:48;;;;;;;6.25;3.47;;;;;;;18.92;64.47;99442.69;2087546;28;19928;-47
2022/11/13 01:00:50;;;;;;;;;;;;;;;18.84;64.63;99439.28;2088619;28;20055;-46
2022/11/13 01:01:51;;;;;;;7.07;3.80;;;;;;;18.88;64.52;99433.31;2084512;28;19928;-48
2022/11/13 01:02:52;;;;;;;;;;;;;;;18.82;64.65;99439.44;2091499;28;20059;-46
2022/11/13 01:03:53;;;;;;;;;;;;;;;18.75;64.91;99441.22;2086089;28;19935;-46
2022/11/13 01:04:55;;;;;;;6.55;4.85;;;;;;;18.82;64.94;99444.00;2088016;28;20356;-46
2022/11/13 01:05:56;;;;;;;7.90;4.30;;;;;;;18.88;64.49;99441.38;2087466;28;20880;-46
2022/11/13 01:06:57;;;;;;;;;;;;;;;18.79;64.85;99439.81;2086708;28;20052;-49
2022/11/13 01:07:58;;;;;;;;;;;;;;;18.73;65.12;99443.22;2084744;28;20484;-46
2022/11/13 01:09:00;;;;;;;12.03;4.43;;;;;;;18.81;65.01;99447.72;2087165;28;19928;-46
2022/11/13 01:10:01;;;;;;;9.45;4.95;;;;;;;18.85;64.40;99449.00;2083624;28;20280;-50
2022/11/13 01:11:07;;;;;;;;;;;;;;;18.77;64.74;99447.22;2074591;28;20076;-46
2022/11/13 01:12:09;;;;;;;9.10;3.95;;;;;;;18.82;64.60;99449.38;2068881;28;19925;-46
2022/11/13 01:13:10;;;;;;;7.60;4.63;;;;;;;18.85;64.61;99444.44;2078789;28;20052;-47
2022/11/13 01:14:13;;;;;;;;;;;;;;;18.75;64.95;99447.44;2077650;28;20055;-46
2022/11/13 01:15:14;;;;;;;7.22;4.65;;;;;;;18.80;64.95;99448.72;2080708;28;19937;-46
2022/11/13 01:16:16;;;;;;;;;;;;;;;18.72;64.83;99439.72;2076000;28;20187;-47
2022/11/13 01:17:17;;;;;;;7.80;4.60;;;;;;;18.79;64.96;99437.13;2078579;28;19924;-48
2022/11/13 01:18:18;;;;;;;;;;;;;;;18.70;64.90;99440.91;2077214;28;22431;-47
2022/11/13 01:19:19;;;;;;;7.53;3.28;;;;;;;18.73;64.78;99433.31;2076096;28;19928;-49
2022/11/13 01:20:21;;;;;;;;;;;;;;;18.69;64.81;99433.84;2078548;28;20050;-46
2022/11/13 01:21:23;;;;;;;;;;;;;;;18.63;65.22;99429.22;2077160;28;19924;-46
2022/11/13 01:22:24;;;;;;;5.72;4.03;;;;;;;18.71;64.96;99437.19;2079369;28;19935;-46
2022/11/13 01:23:25;;;;;;;7.35;4.15;;;;;;;18.77;64.68;99427.59;2076237;28;20045;-45
2022/11/13 01:24:27;;;;;;;;;;;;;;;18.69;64.79;99429.34;2079126;28;20132;-46
2022/11/13 01:25:28;;;;;;;;;;;;;;;18.62;65.29;99428.38;2077181;28;19940;-47
2022/11/13 01:26:30;;;;;;;7.32;4.25;;;;;;;18.70;65.23;99425.63;2076308;28;19931;-46
2022/11/13 01:27:31;;;;;;;5.97;4.32;;;;;;;18.75;64.90;99422.41;2079166;28;20783;-46
2022/11/13 01:28:33;;;;;;;;;;;;;;;18.67;65.07;99414.41;2079728;28;20059;-46
2022/11/13 01:29:36;;;;;;;6.18;3.78;;;;;;;18.70;65.14;99419.41;2077029;28;19929;-46
2022/11/13 01:30:39;;;;;;;8.60;4.03;;;;;;;18.73;64.71;99417.19;2079808;28;20474;-50
2022/11/13 01:31:40;;;;;;;7.22;4.03;;;;;;;18.77;64.98;99422.22;2078406;28;20064;-46
2022/11/13 01:32:41;;;;;;;;;;;;;;;18.68;64.73;99416.06;2076671;28;20060;-46
2022/11/13 01:33:42;;;;;;;;;;;;;;;18.60;65.09;99421.53;2079752;28;19928;-45
2022/11/13 01:34:44;;;;;;;6.13;3.63;;;;;;;18.64;64.93;99415.63;2072038;28;19964;-47
2022/11/13 01:35:44;;;;;;;11.80;3.78;;;;;;;18.70;64.74;99417.56;2076748;28;20041;-47
2022/11/13 01:36:46;;;;;;;;;;;;;;;18.60;64.92;99418.84;2078535;28;20063;-48
2022/11/13 01:37:47;;;;;;;;;;;;;;;18.56;65.12;99423.75;2077159;28;19947;-48
2022/11/13 01:38:49;;;;;;;6.67;3.87;;;;;;;18.62;65.14;99416.81;2078955;28;20608;-47
2022/11/13 01:39:50;;;;;;;6.85;4.35;;;;;;;18.68;65.06;99421.44;2076822;28;20291;-48
2022/11/13 01:40:52;;;;;;;;;;;;;;;18.63;65.21;99418.47;2079976;28;20056;-51
2022/11/13 01:41:53;;;;;;;;;;;;;;;18.56;65.19;99421.06;2078301;28;19928;-47
2022/11/13 01:42:54;;;;;;;8.75;4.10;;;;;;;18.62;64.88;99417.63;2077834;28;19967;-46
2022/11/13 01:43:56;;;;;;;;;;;;;;;18.58;65.14;99420.88;2077382;28;20053;-47
2022/11/13 01:44:59;;;;;;;;;;;;;;;18.50;65.47;99419.94;2077964;28;19927;-48
2022/11/13 01:46:20;;;;;;;7.10;3.70;;;;;;;18.58;65.04;99413.63;2078553;28;19925;-48
2022/11/13 01:47:23;;;;;;;5.05;3.70;;;;;;;18.62;64.97;99414.97;2076471;28;20092;-47
2022/11/13 01:48:27;;;;;;;7.00;3.90;;;;;;;18.69;64.74;99417.72;2076940;28;20056;-51
2022/11/13 01:49:32;;;;;;;7.28;4.63;;;;;;;18.71;64.61;99416.53;2078439;28;20051;-49
2022/11/13 01:50:33;;;;;;;13.27;3.88;;;;;;;18.72;64.55;99409.28;2078149;28;20055;-48
2022/11/13 01:51:36;;;;;;;;;;;;;;;18.61;64.77;99409.75;2078094;28;20059;-49
2022/11/13 01:52:40;;;;;;;7.72;4.18;;;;;;;18.64;64.79;99395.97;2076721;28;20468;-47
2022/11/13 01:53:45;;;;;;;9.88;4.57;;;;;;;18.68;64.64;99402.63;2080088;28;20084;-48
2022/11/13 01:54:49;;;;;;;7.90;3.72;;;;;;;18.68;64.68;99405.31;2081072;28;20045;-48
2022/11/13 01:55:51;;;;;;;6.60;3.65;;;;;;;18.70;64.72;99403.28;2077253;28;20697;-48
2022/11/13 01:56:54;;;;;;;8.35;4.47;;;;;;;18.71;64.67;99402.25;2075878;28;20572;-50
2022/11/13 01:57:56;;;;;;;6.80;3.88;;;;;;;18.71;64.55;99402.25;2077984;28;20056;-47
2022/11/13 01:59:06;;;;;;;5.07;3.63;;;;;;;18.69;64.65;99397.09;2079600;28;20045;-47
2022/11/13 02:00:10;;;;;;;5.47;3.97;;;;;;;18.69;64.73;99397.09;2079388;28;20546;-49
2022/11/13 02:01:12;;;;;;;10.48;4.90;;;;;;;18.68;64.85;99386.50;2081891;28;20052;-46
2022/11/13 02:02:13;;;;;;;7.85;4.35;;;;;;;18.69;64.54;99390.84;2084067;28;20521;-48
2022/11/13 02:03:14;;;;;;;;;;;;;;;18.57;64.81;99395.88;2087415;28;20106;-50
2022/11/13 02:04:16;;;;;;;;;;;;;;;18.47;65.38;99387.22;2084736;28;19921;-47
2022/11/13 02:05:17;;;;;;;9.65;4.45;;;;;;;18.55;65.17;99389.84;2079995;28;19929;-48
2022/11/13 02:06:20;;;;;;;;;;;;;;;18.48;65.31;99386.22;2078970;28;20057;-52
2022/11/13 02:07:22;;;;;;;8.68;4.22;;;;;;;18.53;65.02;99386.53;2082502;28;19970;-46
2022/11/13 02:08:24;;;;;;;5.75;3.78;;;;;;;18.59;65.11;99384.94;2080197;28;20056;-48
2022/11/13 02:09:28;;;;;;;6.45;4.13;;;;;;;18.62;64.92;99381.88;2077317;28;20056;-46
2022/11/13 02:10:29;;;;;;;6.80;3.90;;;;;;;18.64;64.58;99387.91;2078212;28;20052;-47
2022/11/13 02:11:30;;;;;;;7.68;3.75;;;;;;;18.65;64.66;99381.50;2076410;28;20189;-48
2022/11/13 02:12:34;;;;;;;;;;;;;;;18.52;65.08;99374.91;2081169;28;20057;-47
2022/11/13 02:13:36;;;;;;;7.72;4.18;;;;;;;18.56;64.98;99374.56;2081907;28;19924;-50
2022/11/13 02:14:42;;;;;;;8.77;3.80;;;;;;;18.58;64.78;99376.03;2078763;28;20477;-49
2022/11/13 02:15:46;;;;;;;7.97;3.75;;;;;;;18.61;64.91;99382.88;2079056;28;20057;-46
2022/11/13 02:16:51;;;;;;;8.30;4.47;;;;;;;18.61;64.75;99377.50;2090430;28;20055;-49
2022/11/13 02:17:54;;;;;;;7.32;4.50;;;;;;;18.60;64.54;99381.22;2087156;28;20056;-48
2022/11/13 02:18:56;;;;;;;6.43;3.45;;;;;;;18.60;64.85;99382.06;2074787;28;20078;-46
2022/11/13 02:20:00;;;;;;;7.30;3.80;;;;;;;18.62;64.87;99381.88;2078158;28;20415;-48
2022/11/13 02:21:11;;;;;;;6.90;4.28;;;;;;;18.60;64.63;99382.06;2076687;28;20068;-47
2022/11/13 02:22:21;;;;;;;6.90;4.05;;;;;;;18.59;64.68;99382.25;2077103;28;20045;-52
2022/11/13 02:23:35;;;;;;;6.68;3.97;;;;;;;18.56;64.77;99379.94;2078486;28;20049;-49
2022/11/13 02:24:40;;;;;;;10.05;4.20;;;;;;;18.56;64.53;99380.78;2072004;28;20064;-47
2022/11/13 02:25:42;;;;;;;6.93;3.90;;;;;;;18.56;64.75;99380.78;2073358;28;20128;-49
2022/11/13 02:26:44;;;;;;;9.23;4.70;;;;;;;18.60;64.67;99376.69;2081626;28;20040;-47
2022/11/13 02:27:48;;;;;;;6.57;4.25;;;;;;;18.59;64.59;99379.56;2087143;28;20048;-48
2022/11/13 02:28:49;;;;;;;5.63;3.85;;;;;;;18.59;64.51;99384.94;2083165;28;20064;-50
2022/11/13 02:29:50;;;;;;;;;;;;;;;18.46;64.99;99389.09;2083364;28;20110;-49
2022/11/13 02:30:51;;;;;;;7.20;4.47;;;;;;;18.48;64.90;99384.38;2088318;28;19935;-48
2022/11/13 02:31:53;;;;;;;;;;;;;;;18.40;65.20;99386.31;2088020;28;20135;-45
2022/11/13 02:32:54;;;;;;;;;;;;;;;18.32;65.58;99384.53;2086625;28;20611;-45
2022/11/13 02:33:56;;;;;;;;;;;;;;;18.27;65.83;99392.31;2084108;28;21971;-48
2022/11/13 02:34:57;;;;;;;7.35;3.22;;;;;;;18.36;65.48;99391.22;2085412;28;19931;-45
2022/11/13 02:35:59;;;;;;;;;;;;;;;18.31;65.45;99382.88;2085788;28;20093;-46
2022/11/13 02:37:00;;;;;;;6.38;3.85;;;;;;;18.39;65.13;99382.81;2086128;28;19935;-45
2022/11/13 02:38:03;;;;;;;;;;;;;;;18.33;65.33;99385.38;2086659;28;20160;-48
2022/11/13 02:39:10;;;;;;;8.15;4.47;;;;;;;18.39;65.38;99381.97;2085310;28;19929;-47
2022/11/13 02:40:14;;;;;;;6.80;4.45;;;;;;;18.43;65.13;99380.56;2085114;28;20150;-47
2022/11/13 02:41:14;;;;;;;7.85;5.20;;;;;;;18.46;65.01;99378.34;2087334;28;20526;-48
2022/11/13 02:42:16;;;;;;;;;;;;;;;18.35;65.25;99389.53;2088543;28;20062;-48
2022/11/13 02:43:17;;;;;;;5.78;3.50;;;;;;;18.40;65.28;99387.16;2085611;28;19927;-47
2022/11/13 02:44:19;;;;;;;5.80;3.20;;;;;;;18.43;65.09;99381.41;2084409;28;20101;-47
2022/11/13 02:45:19;;;;;;;8.25;3.90;;;;;;;18.47;64.72;99384.53;2086348;28;20060;-49
2022/11/13 02:46:21;;;;;;;;;;;;;;;18.37;65.22;99386.69;2089463;28;20040;-49
2022/11/13 02:47:22;;;;;;;6.13;4.05;;;;;;;18.40;64.99;99386.31;2086661;28;19928;-48
2022/11/13 02:48:23;;;;;;;;;;;;;;;18.33;65.14;99380.84;2086037;28;20053;-48
2022/11/13 02:49:24;;;;;;;6.15;4.13;;;;;;;18.34;65.31;99379.81;2086622;27;19986;-47
2022/11/13 02:50:26;;;;;;;;;;;;;;;18.27;65.41;99378.88;2086667;28;20104;-45
2022/11/13 02:51:27;;;;;;;5.43;3.83;;;;;;;18.34;65.17;99385.19;2083842;28;19936;-45
2022/11/13 02:52:30;;;;;;;;;;;;;;;18.26;65.69;99382.59;2086239;28;20095;-48
2022/11/13 02:53:31;;;;;;;5.57;3.53;;;;;;;18.33;65.34;99377.31;2086180;28;19924;-47
2022/11/13 02:54:33;;;;;;;6.22;3.65;;;;;;;18.37;65.38;99374.09;2085264;28;20052;-46
2022/11/13 02:55:35;;;;;;;9.00;3.92;;;;;;;18.41;64.89;99380.75;2089669;28;20048;-45
2022/11/13 02:56:37;;;;;;;6.00;4.22;;;;;;;18.40;65.09;99380.94;2084424;28;20044;-45
2022/11/13 02:57:38;;;;;;;8.82;3.80;;;;;;;18.41;65.02;99385.28;2089791;28;20051;-45
2022/11/13 02:58:39;;;;;;;;;;;;;;;18.29;65.50;99382.22;2087769;28;20429;-49
2022/11/13 02:59:40;;;;;;;6.53;4.10;;;;;;;18.32;65.36;99387.22;2085130;27;19931;-48
2022/11/13 03:00:42;;;;;;;;;;;;;;;18.22;65.45;99383.97;2083566;28;20741;-46
2022/11/13 03:01:42;;;;;;;;;;;;;;;18.16;65.70;99385.53;2089798;28;19928;-47
2022/11/13 03:02:44;;;;;;;7.27;3.83;;;;;;;18.25;65.63;99378.25;2083365;28;19946;-46
2022/11/13 03:03:45;;;;;;;6.55;3.75;;;;;;;18.34;65.46;99382.50;2082905;28;20044;-45
2022/11/13 03:04:47;;;;;;;;;;;;;;;18.22;65.64;99378.59;2087341;28;20044;-48
2022/11/13 03:05:48;;;;;;;6.18;3.50;;;;;;;18.25;65.58;99372.88;2088157;28;19946;-48
2022/11/13 03:06:50;;;;;;;6.03;3.60;;;;;;;18.34;65.17;99377.16;2086764;28;20043;-47
2022/11/13 03:07:51;;;;;;;7.78;3.53;;;;;;;18.35;65.04;99376.13;2091822;28;20063;-46
2022/11/13 03:08:52;;;;;;;;;;;;;;;18.24;65.60;99376.56;2087125;28;20729;-46
2022/11/13 03:09:53;;;;;;;;;;;;;;;18.15;65.86;99377.66;2094034;28;19923;-48
2022/11/13 03:10:56;;;;;;;6.73;4.17;;;;;;;18.22;65.42;99378.59;2091718;28;19926;-47
2022/11/13 03:11:57;;;;;;;9.05;3.65;;;;;;;18.28;65.25;99384.09;2091878;28;20040;-47
2022/11/13 03:12:59;;;;;;;;;;;;;;;18.19;65.46;99379.81;2093037;28;20040;-46
2022/11/13 03:14:00;;;;;;;5.45;3.17;;;;;;;18.26;65.37;99377.22;2087579;27;19921;-47
2022/11/13 03:15:01;;;;;;;;;;;;;;;18.18;65.65;99388.03;2083353;28;20041;-46
2022/11/13 03:16:10;;;;;;;6.35;4.25;;;;;;;18.25;65.54;99383.63;2086268;28;20511;-46
2022/11/13 03:17:12;;;;;;;5.07;3.58;;;;;;;18.29;65.40;99385.75;2088485;28;20052;-46
2022/11/13 03:18:13;;;;;;;6.63;3.63;;;;;;;18.32;65.03;99387.22;2083906;28;20057;-45
2022/11/13 03:19:15;;;;;;;5.70;3.15;;;;;;;18.33;65.25;99378.19;2083328;28;20052;-47
2022/11/13 03:20:16;;;;;;;5.57;3.40;;;;;;;18.35;65.03;99378.81;2085790;28;20052;-46
2022/11/13 03:21:18;;;;;;;;;;;;;;;18.23;65.15;99381.09;2083336;28;20125;-47
2022/11/13 03:22:19;;;;;;;5.22;3.45;;;;;;;18.27;65.25;99374.34;2089491;28;19924;-46
2022/11/13 03:23:20;;;;;;;;;;;;;;;18.18;65.63;99374.63;2091849;28;20415;-45
2022/11/13 03:24:21;;;;;;;8.85;5.00;;;;;;;18.21;65.45;99375.06;2087927;28;19921;-48
2022/11/13 03:25:23;;;;;;;;;;;;;;;18.13;65.54;99379.69;2094563;28;20542;-47
2022/11/13 03:26:27;;;;;;;4.72;3.50;;;;;;;18.22;65.37;99383.97;2091667;28;19923;-46
2022/11/13 03:27:31;;;;;;;5.93;3.53;;;;;;;18.26;65.13;99375.38;2088491;28;20640;-48
2022/11/13 03:28:31;;;;;;;6.93;4.00;;;;;;;18.31;65.25;99383.72;2092565;28;20041;-48
2022/11/13 03:29:33;;;;;;;;;;;;;;;18.22;65.41;99370.53;2093466;28;20048;-46
2022/11/13 03:30:34;;;;;;;;;;;;;;;18.13;65.73;99385.06;2090846;28;20570;-47
2022/11/13 03:31:36;;;;;;;7.23;3.67;;;;;;;18.16;65.59;99376.66;2087295;28;19931;-50
2022/11/13 03:32:36;;;;;;;4.95;3.42;;;;;;;18.21;65.36;99377.75;2084641;28;20055;-47
2022/11/13 03:33:38;;;;;;;;;;;;;;;18.12;65.44;99389.59;2090659;28;20103;-47
2022/11/13 03:34:39;;;;;;;7.70;5.00;;;;;;;18.20;65.48;99375.28;2082804;28;19947;-45
2022/11/13 03:35:42;;;;;;;;;;;;;;;18.10;65.66;99380.88;2088589;28;20490;-47
2022/11/13 03:36:43;;;;;;;6.30;3.80;;;;;;;18.17;65.37;99381.84;2089307;28;20549;-47
2022/11/13 03:37:44;;;;;;;;;;;;;;;18.10;65.90;99386.25;2086140;28;20054;-46
2022/11/13 03:38:45;;;;;;;6.00;4.13;;;;;;;18.14;65.56;99389.44;2088295;28;20857;-46
2022/11/13 03:39:47;;;;;;;;;;;;;;;18.07;65.60;99390.13;2086342;28;20053;-47
2022/11/13 03:40:48;;;;;;;4.43;3.22;;;;;;;18.14;65.56;99387.59;2084615;28;19924;-50
2022/11/13 03:41:51;;;;;;;8.25;4.22;;;;;;;18.21;65.18;99383.13;2089580;28;20045;-47
2022/11/13 03:42:52;;;;;;;5.57;3.25;;;;;;;18.25;65.21;99379.09;2087965;28;20056;-47
2022/11/13 03:43:54;;;;;;;;;;;;;;;18.14;65.62;99381.38;2089724;28;20051;-46
2022/11/13 03:44:54;;;;;;;6.57;3.50;;;;;;;18.17;65.42;99381.00;2093245;28;19924;-48
2022/11/13 03:45:56;;;;;;;;;;;;;;;18.08;65.67;99389.16;2089170;28;20080;-46
2022/11/13 03:46:56;;;;;;;;;;;;;;;18.02;65.76;99384.47;2089284;28;19924;-46
2022/11/13 03:47:58;;;;;;;5.67;3.83;;;;;;;18.11;65.51;99379.03;2089833;28;19928;-47
2022/11/13 03:48:59;;;;;;;5.05;2.95;;;;;;;18.17;65.56;99381.84;2088640;28;20049;-55
2022/11/13 03:50:01;;;;;;;;;;;;;;;18.07;65.52;99392.00;2091452;28;20054;-46
2022/11/13 03:51:02;;;;;;;6.68;3.47;;;;;;;18.10;65.56;99380.88;2085589;28;19939;-47
2022/11/13 03:52:04;;;;;;;5.63;4.00;;;;;;;18.18;65.28;99375.44;2083590;28;20562;-47
2022/11/13 03:53:05;;;;;;;5.57;3.35;;;;;;;18.19;65.39;99376.28;2083818;28;20383;-47
2022/11/13 03:54:06;;;;;;;;;;;;;;;18.12;65.87;99383.41;2088031;27;20082;-47
2022/11/13 03:55:08;;;;;;;4.72;3.38;;;;;;;18.12;65.42;99378.88;2085597;28;20679;-47
2022/11/13 03:56:09;;;;;;;5.05;3.10;;;;;;;18.19;65.29;99384.34;2092840;28;20460;-46
2022/11/13 03:57:12;;;;;;;5.25;3.20;;;;;;;18.20;65.26;99376.09;2090012;28;20048;-47
2022/11/13 03:58:14;;;;;;;8.00;4.18;;;;;;;18.22;65.06;99376.78;2085586;28;20040;-48
2022/11/13 03:59:15;;;;;;;4.80;3.15;;;;;;;18.20;65.20;99370.75;2091353;28;20056;-50
2022/11/13 04:00:17;;;;;;;;;;;;;;;18.11;65.51;99381.72;2088718;28;20058;-47
2022/11/13 04:01:18;;;;;;;4.07;3.13;;;;;;;18.15;65.34;99374.97;2084314;28;19920;-47
2022/11/13 04:02:19;;;;;;;;;;;;;;;18.04;65.50;99377.09;2087869;28;20055;-46
2022/11/13 04:03:20;;;;;;;4.60;2.50;;;;;;;18.11;65.60;99370.97;2095220;28;19929;-46
2022/11/13 04:04:22;;;;;;;;;;;;;;;18.01;65.59;99382.81;2094930;28;20070;-47
2022/11/13 04:05:22;;;;;;;;;;;;;;;17.96;65.72;99385.22;2089404;28;19936;-48
2022/11/13 04:06:24;;;;;;;5.17;3.40;;;;;;;18.03;65.81;99386.16;2081494;28;20358;-47
2022/11/13 04:07:25;;;;;;;4.82;3.53;;;;;;;18.12;65.31;99384.25;2086541;28;20279;-46
2022/11/13 04:08:27;;;;;;;;;;;;;;;18.02;65.50;99379.09;2084655;28;21260;-45
2022/11/13 04:09:27;;;;;;;5.78;3.47;;;;;;;18.07;65.45;99379.41;2085937;28;20298;-46
2022/11/13 04:10:29;;;;;;;;;;;;;;;18.00;65.79;99378.47;2083142;28;20048;-46
2022/11/13 04:11:30;;;;;;;;;;;;;;;17.95;65.72;99382.72;2081959;28;19929;-48
2022/11/13 04:12:33;;;;;;;8.80;4.07;;;;;;;18.03;65.74;99380.78;2090392;28;19926;-47
2022/11/13 04:13:34;;;;;;;4.50;3.08;;;;;;;18.08;65.54;99378.41;2083639;28;20127;-46
2022/11/13 04:14:35;;;;;;;;;;;;;;;18.02;65.50;99380.97;2085266;28;20048;-47
2022/11/13 04:15:36;;;;;;;;;;;;;;;17.95;65.85;99378.19;2089670;28;19950;-47
2022/11/13 04:16:38;;;;;;;4.33;3.73;;;;;;;17.99;65.80;99381.34;2088429;28;20004;-46
2022/11/13 04:17:39;;;;;;;8.25;3.47;;;;;;;18.05;65.45;99381.47;2085174;28;20488;-47
2022/11/13 04:18:40;;;;;;;;;;;;;;;17.98;65.73;99383.19;2088292;28;20044;-47
2022/11/13 04:19:41;;;;;;;4.00;2.88;;;;;;;18.01;65.71;99377.44;2089808;28;19929;-45
2022/11/13 04:20:42;;;;;;;;;;;;;;;17.95;65.75;99372.81;2086702;28;20135;-46
2022/11/13 04:21:43;;;;;;;6.15;3.13;;;;;;;18.01;65.70;99380.13;2087467;28;19921;-48
2022/11/13 04:22:45;;;;;;;;;;;;;;;17.95;65.71;99380.88;2085774;28;20636;-49
2022/11/13 04:23:46;;;;;;;5.28;3.30;;;;;;;18.03;65.54;99382.66;2085414;28;19939;-46
2022/11/13 04:24:48;;;;;;;4.40;3.20;;;;;;;18.07;65.43;99376.72;2086532;28;20066;-49
2022/11/13 04:25:49;;;;;;;5.75;3.58;;;;;;;18.11;65.38;99377.22;2082075;28;20064;-47
2022/11/13 04:26:50;;;;;;;;;;;;;;;18.02;65.50;99379.09;2087529;28;20171;-46
2022/11/13 04:27:53;;;;;;;4.75;2.80;;;;;;;18.06;65.48;99375.06;2087341;28;19924;-47
2022/11/13 04:28:55;;;;;;;6.10;3.55;;;;;;;18.08;65.28;99373.03;2087495;28;20555;-47
2022/11/13 04:29:55;;;;;;;6.93;3.45;;;;;;;18.10;65.16;99370.16;2085685;28;20049;-51
2022/11/13 04:30:57;;;;;;;;;;;;;;;17.99;65.68;99375.97;2086952;28;20051;-47
2022/11/13 04:31:58;;;;;;;7.03;4.28;;;;;;;18.02;65.48;99373.75;2085100;28;19924;-46
2022/11/13 04:32:59;;;;;;;;;;;;;;;17.94;65.76;99376.53;2089290;28;20498;-46
2022/11/13 04:34:00;;;;;;;;;;;;;;;17.89;65.72;99367.34;2085188;28;19928;-47
2022/11/13 04:35:02;;;;;;;4.03;3.07;;;;;;;17.97;65.65;99373.47;2088684;28;19997;-46
2022/11/13 04:36:03;;;;;;;5.35;3.15;;;;;;;18.03;65.36;99370.06;2085444;28;20052;-47
2022/11/13 04:37:05;;;;;;;4.80;3.50;;;;;;;18.07;65.18;99359.78;2087450;28;20039;-46
2022/11/13 04:38:06;;;;;;;5.90;3.70;;;;;;;18.08;65.31;99359.63;2088143;28;20053;-47
2022/11/13 04:39:08;;;;;;;;;;;;;;;17.99;65.70;99357.19;2085986;28;20048;-47
2022/11/13 04:40:09;;;;;;;;;;;;;;;17.93;65.86;99369.47;2085364;28;19925;-49
2022/11/13 04:42:50;;;;;;;5.82;3.40;;;;;;;17.93;65.62;99364.09;2086843;28;20096;-45
2022/11/13 04:43:52;;;;;;;4.35;3.10;;;;;;;17.97;65.55;99360.06;2084312;28;21120;-49
2022/11/13 04:44:53;;;;;;;6.45;3.38;;;;;;;18.03;65.42;99370.06;2088556;28;20097;-46
2022/11/13 04:45:54;;;;;;;;;;;;;;;17.95;65.71;99372.00;2085629;28;20056;-48
2022/11/13 04:46:55;;;;;;;4.20;3.28;;;;;;;17.99;65.58;99374.09;2087152;28;19924;-46
2022/11/13 04:47:57;;;;;;;;;;;;;;;17.93;65.52;99368.66;2083921;28;20131;-48
2022/11/13 04:48:57;;;;;;;;;;;;;;;17.86;65.76;99372.06;2086729;28;19970;-49
2022/11/13 04:49:59;;;;;;;5.13;2.90;;;;;;;17.93;65.80;99366.78;2085423;28;21962;-45
2022/11/13 04:51:00;;;;;;;5.22;3.75;;;;;;;18.00;65.61;99362.38;2087327;28;20097;-49
2022/11/13 04:52:02;;;;;;;5.07;2.92;;;;;;;18.01;65.43;99355.16;2084398;28;20048;-47
2022/11/13 04:53:03;;;;;;;3.95;3.15;;;;;;;18.04;65.19;99352.94;2087746;28;20119;-46
2022/11/13 04:54:05;;;;;;;;;;;;;;;17.96;65.63;99368.28;2087948;28;20109;-46
2022/11/13 04:55:07;;;;;;;4.68;3.15;;;;;;;18.01;65.57;99365.88;2086489;28;20581;-48
2022/11/13 04:56:08;;;;;;;5.85;4.00;;;;;;;18.01;65.38;99361.34;2083861;28;20121;-47
2022/11/13 04:57:09;;;;;;;5.03;3.20;;;;;;;18.04;65.27;99354.78;2086430;28;20057;-47
2022/11/13 04:58:11;;;;;;;;;;;;;;;17.95;65.41;99366.63;2087365;28;20086;-50
2022/11/13 04:59:13;;;;;;;5.15;3.22;;;;;;;17.99;65.51;99362.53;2085527;28;19931;-47
2022/11/13 05:00:15;;;;;;;4.13;3.05;;;;;;;18.00;65.38;99354.31;2085483;28;20089;-49
2022/11/13 05:01:16;;;;;;;3.70;2.50;;;;;;;18.03;65.14;99351.28;2085099;28;20538;-45
2022/11/13 05:02:18;;;;;;;;;;;;;;;17.93;65.71;99355.22;2086556;28;20093;-47
2022/11/13 05:03:18;;;;;;;;;;;;;;;17.84;65.66;99363.34;2086481;28;19931;-47